createdAt,value
2023-01-21T00:01:13.612Z,1.40
2023-01-21T00:03:41.108Z,1.15
2023-01-21T00:06:08.373Z,1.20
2023-01-21T00:08:35.928Z,1.10
2023-01-21T00:11:06.934Z,1.30
2023-01-21T00:13:35.781Z,1.17
2023-01-21T00:16:05.035Z,1.30
2023-01-21T00:18:32.226Z,1.23
2023-01-21T00:20:59.168Z,1.23
2023-01-21T00:23:26.352Z,1.00
2023-01-21T00:26:05.374Z,1.30
2023-01-21T00:28:34.404Z,1.40
2023-01-21T00:31:05.686Z,1.30
2023-01-21T00:33:33.578Z,1.02
2023-01-21T00:36:14.357Z,1.08
2023-01-21T00:38:41.341Z,1.30
2023-01-21T00:41:10.986Z,1.35
2023-01-21T00:43:38.130Z,1.20
2023-01-21T00:46:05.696Z,1.13
2023-01-21T00:48:33.293Z,1.63
2023-01-21T00:51:01.140Z,1.17
2023-01-21T00:53:30.686Z,1.10
2023-01-21T00:56:02.089Z,1.45
2023-01-21T00:58:29.956Z,1.40
2023-01-21T01:01:13.609Z,1.10
2023-01-21T01:03:41.265Z,1.20
2023-01-21T01:06:19.894Z,1.00
2023-01-21T01:08:49.620Z,1.02
2023-01-21T01:11:17.835Z,1.40
2023-01-21T01:13:44.942Z,1.33
2023-01-21T01:16:15.476Z,1.15
2023-01-21T01:18:43.135Z,1.50
2023-01-21T01:21:16.498Z,1.35
2023-01-21T01:23:44.461Z,1.60
2023-01-21T01:26:13.480Z,1.60
2023-01-21T01:28:40.506Z,1.38
2023-01-21T01:31:11.074Z,1.20
2023-01-21T01:33:38.041Z,1.77
2023-01-21T01:36:07.957Z,1.38
2023-01-21T01:38:35.649Z,1.65
2023-01-21T01:41:03.053Z,1.48
2023-01-21T01:43:51.342Z,1.67
2023-01-21T01:46:18.576Z,1.40
2023-01-21T01:48:50.954Z,1.65
2023-01-21T01:51:23.367Z,1.77
2023-01-21T01:53:52.187Z,1.40
2023-01-21T01:56:19.830Z,1.27
2023-01-21T01:58:47.784Z,1.35
2023-01-21T02:01:14.786Z,1.30
2023-01-21T02:03:46.276Z,1.45
2023-01-21T02:06:14.703Z,1.17
2023-01-21T02:08:44.492Z,1.27
2023-01-21T02:11:13.369Z,1.10
2023-01-21T02:13:42.204Z,0.90
2023-01-21T02:16:27.388Z,1.10
2023-01-21T02:19:12.826Z,0.88
2023-01-21T02:21:54.312Z,0.90
2023-01-21T02:24:41.435Z,0.82
2023-01-21T02:30:16.803Z,1.05
2023-01-21T02:33:11.351Z,0.90
2023-01-21T02:35:41.069Z,1.15
2023-01-21T02:38:49.778Z,1.10
2023-01-21T02:41:22.546Z,1.35
2023-01-21T02:44:05.241Z,1.05
2023-01-21T02:47:05.639Z,1.13
2023-01-21T02:49:40.265Z,1.08
2023-01-21T02:52:07.213Z,0.80
2023-01-21T02:54:39.716Z,1.02
2023-01-21T02:57:14.003Z,1.00
2023-01-21T02:59:45.343Z,1.20
2023-01-21T03:02:42.767Z,0.73
2023-01-21T03:05:18.439Z,0.70
2023-01-21T03:07:51.495Z,0.77
2023-01-21T03:10:32.091Z,0.70
2023-01-21T03:13:05.994Z,0.43
2023-01-21T03:15:57.359Z,0.70
2023-01-21T03:18:40.464Z,0.40
2023-01-21T03:21:15.531Z,0.65
2023-01-21T03:23:45.820Z,0.57
2023-01-21T03:26:17.231Z,0.43
2023-01-21T03:28:50.281Z,0.35
2023-01-21T03:31:28.723Z,0.50
2023-01-21T03:34:00.343Z,0.32
2023-01-21T03:36:33.785Z,0.82
2023-01-21T03:39:07.678Z,1.00
2023-01-21T03:41:38.068Z,1.50
2023-01-21T03:44:05.217Z,1.67
2023-01-21T03:46:51.089Z,1.20
2023-01-21T03:49:21.963Z,1.38
2023-01-21T03:51:54.010Z,1.60
2023-01-21T03:54:21.258Z,1.20
2023-01-21T03:56:48.171Z,1.42
2023-01-21T03:59:15.147Z,1.55
2023-01-21T04:01:42.035Z,1.42
2023-01-21T04:04:10.257Z,1.40
2023-01-21T04:06:37.277Z,1.90
2023-01-21T04:09:05.823Z,1.30
2023-01-21T04:11:33.436Z,1.38
2023-01-21T04:14:00.516Z,1.65
2023-01-21T04:16:27.468Z,2.00
2023-01-21T04:18:54.486Z,2.50
2023-01-21T04:21:21.622Z,2.30
2023-01-21T04:23:48.607Z,3.17
2023-01-21T04:26:16.650Z,3.05
2023-01-21T04:28:43.661Z,2.70
2023-01-21T04:31:10.631Z,1.42
2023-01-21T04:33:37.552Z,1.20
2023-01-21T04:36:04.643Z,1.40
2023-01-21T04:38:31.575Z,1.60
2023-01-21T04:40:58.620Z,1.33
2023-01-21T04:43:25.631Z,1.70
2023-01-21T04:45:52.710Z,1.60
2023-01-21T04:48:19.745Z,1.50
2023-01-21T04:50:47.163Z,1.23
2023-01-21T04:53:14.201Z,1.80
2023-01-21T04:55:41.117Z,1.67
2023-01-21T04:58:08.015Z,1.85
2023-01-21T05:00:34.936Z,2.58
2023-01-21T05:03:01.876Z,1.58
2023-01-21T05:05:28.803Z,2.17
2023-01-21T05:07:55.776Z,1.95
2023-01-21T05:10:22.868Z,2.30
2023-01-21T05:12:49.743Z,2.70
2023-01-21T05:15:16.888Z,2.65
2023-01-21T05:17:43.894Z,2.65
2023-01-21T05:20:11.483Z,2.72
2023-01-21T05:22:38.973Z,2.60
2023-01-21T05:25:06.622Z,2.88
2023-01-21T05:27:33.609Z,2.28
2023-01-21T05:30:00.491Z,2.42
2023-01-21T05:32:27.428Z,3.00
2023-01-21T05:34:54.362Z,2.95
2023-01-21T05:37:21.298Z,2.38
2023-01-21T05:39:48.226Z,2.60
2023-01-21T05:42:15.136Z,2.90
2023-01-21T05:44:42.087Z,3.88
2023-01-21T05:47:08.997Z,3.80
2023-01-21T05:49:36.256Z,3.15
2023-01-21T05:52:03.177Z,1.95
2023-01-21T05:54:30.118Z,2.22
2023-01-21T05:56:57.076Z,1.90
2023-01-21T05:59:24.002Z,1.70
2023-01-21T06:01:51.076Z,1.60
2023-01-21T06:04:17.980Z,1.08
2023-01-21T06:06:44.879Z,0.93
2023-01-21T06:09:11.922Z,0.73
2023-01-21T06:11:38.947Z,1.23
2023-01-21T06:14:05.895Z,1.55
2023-01-21T06:16:32.772Z,1.17
2023-01-21T06:18:59.678Z,1.10
2023-01-21T06:21:26.532Z,1.27
2023-01-21T06:23:53.392Z,1.05
2023-01-21T06:26:20.245Z,1.58
2023-01-21T06:28:47.253Z,0.90
2023-01-21T06:31:14.161Z,1.17
2023-01-21T06:33:41.113Z,1.52
2023-01-21T06:36:08.543Z,1.48
2023-01-21T06:38:36.307Z,1.17
2023-01-21T06:41:03.829Z,1.35
2023-01-21T06:43:30.700Z,1.08
2023-01-21T06:45:57.737Z,1.30
2023-01-21T06:48:24.796Z,1.10
2023-01-21T06:50:51.725Z,1.20
2023-01-21T06:53:18.610Z,1.08
2023-01-21T06:55:47.501Z,0.90
2023-01-21T06:58:15.036Z,1.30
2023-01-21T07:00:42.318Z,0.90
2023-01-21T07:03:09.353Z,0.95
2023-01-21T07:05:36.324Z,1.23
2023-01-21T07:08:03.723Z,1.35
2023-01-21T07:10:30.687Z,1.35
2023-01-21T07:12:57.557Z,1.10
2023-01-21T07:15:24.816Z,1.30
2023-01-21T07:17:53.231Z,1.08
2023-01-21T07:20:21.942Z,1.25
2023-01-21T07:22:48.844Z,1.75
2023-01-21T07:25:16.012Z,1.63
2023-01-21T07:27:43.097Z,1.83
2023-01-21T07:30:16.706Z,1.50
2023-01-21T07:32:43.768Z,1.40
2023-01-21T07:35:10.645Z,1.63
2023-01-21T07:37:37.582Z,1.63
2023-01-21T07:40:05.171Z,1.55
2023-01-21T07:42:32.070Z,1.50
2023-01-21T07:44:59.679Z,1.30
2023-01-21T07:47:26.671Z,1.50
2023-01-21T07:49:53.545Z,1.45
2023-01-21T07:52:20.460Z,1.58
2023-01-21T07:54:48.013Z,1.90
2023-01-21T07:57:15.026Z,1.55
2023-01-21T07:59:42.222Z,2.38
2023-01-21T08:02:11.918Z,1.98
2023-01-21T08:04:38.856Z,1.55
2023-01-21T08:07:11.998Z,2.03
2023-01-21T08:09:40.139Z,1.38
2023-01-21T08:12:08.477Z,1.35
2023-01-21T08:14:35.524Z,1.90
2023-01-21T08:17:02.471Z,1.40
2023-01-21T08:19:29.445Z,1.25
2023-01-21T08:21:56.320Z,1.80
2023-01-21T08:24:23.239Z,1.60
2023-01-21T08:26:50.188Z,1.50
2023-01-21T08:29:17.162Z,1.30
2023-01-21T08:31:44.073Z,1.23
2023-01-21T08:34:10.953Z,1.67
2023-01-21T08:36:39.130Z,1.08
2023-01-21T08:39:06.538Z,1.13
2023-01-21T08:41:33.726Z,1.55
2023-01-21T08:44:00.995Z,1.60
2023-01-21T08:46:28.065Z,2.53
2023-01-21T08:48:54.973Z,2.13
2023-01-21T08:51:21.900Z,1.60
2023-01-21T08:53:50.223Z,1.67
2023-01-21T08:56:17.912Z,1.98
2023-01-21T08:58:44.915Z,2.53
2023-01-21T09:01:15.503Z,1.95
2023-01-21T09:03:42.472Z,5.20
2023-01-21T09:06:11.322Z,3.80
2023-01-21T09:08:38.223Z,3.78
2023-01-21T09:11:07.144Z,3.90
2023-01-21T09:13:37.623Z,4.65
2023-01-21T09:16:23.409Z,2.40
2023-01-21T09:18:50.562Z,2.63
2023-01-21T09:21:17.797Z,3.05
2023-01-21T09:23:44.968Z,2.40
2023-01-21T09:26:20.395Z,1.20
2023-01-21T09:28:53.185Z,1.77
2023-01-21T09:31:21.936Z,1.70
2023-01-21T09:33:51.785Z,1.73
2023-01-21T09:36:24.115Z,1.40
2023-01-21T09:38:51.876Z,2.75
2023-01-21T09:41:34.228Z,1.70
2023-01-21T09:44:29.030Z,1.95
2023-01-21T10:18:25.799Z,1.90
2023-01-21T10:21:06.914Z,2.78
2023-01-21T10:23:54.110Z,2.13
2023-01-21T10:26:21.512Z,2.63
2023-01-21T10:28:53.370Z,2.55
2023-01-21T10:31:25.733Z,2.25
2023-01-21T10:33:53.320Z,2.47
2023-01-21T10:36:34.968Z,2.75
2023-01-21T10:39:17.743Z,2.15
2023-01-21T10:42:03.378Z,2.13
2023-01-21T10:44:47.934Z,2.58
2023-01-21T10:47:30.483Z,2.88
2023-01-21T10:50:24.522Z,1.98
2023-01-21T10:53:38.865Z,2.20
2023-01-21T10:56:23.229Z,2.40
2023-01-21T10:58:54.083Z,2.28
2023-01-21T11:01:32.872Z,2.20
2023-01-21T11:04:05.183Z,1.75
2023-01-21T11:06:34.473Z,1.88
2023-01-21T11:09:04.562Z,2.00
2023-01-21T11:11:35.490Z,2.60
2023-01-21T11:14:03.049Z,2.38
2023-01-21T11:16:39.109Z,2.65
2023-01-21T11:19:08.060Z,2.17
2023-01-21T11:21:35.059Z,2.28
2023-01-21T11:24:05.113Z,2.25
2023-01-21T11:26:36.200Z,2.95
2023-01-21T11:29:07.063Z,2.47
2023-01-21T11:31:35.333Z,2.97
2023-01-21T11:34:17.711Z,2.50
2023-01-21T11:37:04.630Z,3.53
2023-01-21T11:39:37.941Z,2.53
2023-01-21T11:42:08.414Z,3.05
2023-01-21T11:45:07.025Z,2.47
2023-01-21T11:47:46.815Z,2.00
2023-01-21T11:50:23.441Z,2.10
2023-01-21T11:53:12.435Z,2.10
2023-01-21T11:55:49.183Z,2.08
2023-01-21T11:58:36.095Z,2.60
2023-01-21T12:01:08.102Z,3.25
2023-01-21T12:03:42.091Z,3.67
2023-01-21T12:06:10.794Z,2.78
2023-01-21T12:08:40.479Z,2.95
2023-01-21T12:11:08.688Z,2.20
2023-01-21T12:13:47.655Z,3.55
2023-01-21T12:16:36.609Z,2.97
2023-01-21T12:19:29.426Z,2.63
2023-01-21T12:22:08.910Z,2.35
2023-01-21T12:24:54.143Z,2.55
2023-01-21T12:27:44.007Z,2.20
2023-01-21T12:30:47.808Z,2.60
2023-01-21T12:33:32.885Z,2.03
2023-01-21T12:36:05.876Z,2.10
2023-01-21T12:38:39.100Z,2.63
2023-01-21T12:41:24.155Z,2.33
2023-01-21T12:44:16.968Z,2.72
2023-01-21T12:46:50.289Z,3.05
2023-01-21T12:49:39.835Z,2.60
2023-01-21T12:52:15.696Z,2.53
2023-01-21T12:54:53.995Z,2.15
2023-01-21T12:57:30.180Z,2.03
2023-01-21T13:00:20.789Z,1.83
2023-01-21T13:03:09.015Z,2.42
2023-01-21T13:05:50.692Z,2.53
2023-01-21T13:08:31.652Z,2.10
2023-01-21T13:11:14.924Z,2.50
2023-01-21T13:13:47.648Z,2.00
2023-01-21T13:16:15.079Z,2.10
2023-01-21T13:18:50.640Z,2.78
2023-01-21T13:21:33.018Z,2.90
2023-01-21T13:24:23.918Z,2.72
2023-01-21T13:27:16.760Z,2.47
2023-01-21T13:30:07.568Z,2.70
2023-01-21T13:32:43.328Z,3.30
2023-01-21T13:35:34.643Z,4.73
2023-01-21T13:38:31.097Z,3.00
2023-01-21T13:41:14.838Z,1.88
2023-01-21T13:43:54.377Z,1.80
2023-01-21T13:46:49.017Z,1.80
2023-01-21T13:49:19.784Z,1.65
2023-01-21T13:52:27.307Z,2.78
2023-01-21T13:55:15.737Z,2.33
2023-01-21T13:57:54.730Z,2.40
2023-01-21T14:00:32.719Z,2.38
2023-01-21T14:03:12.256Z,2.25
2023-01-21T14:05:41.872Z,2.58
2023-01-21T14:08:12.057Z,2.80
2023-01-21T14:10:57.527Z,2.83
2023-01-21T14:14:08.655Z,2.75
2023-01-21T14:16:49.002Z,2.20
2023-01-21T14:19:41.992Z,2.53
2023-01-21T14:22:37.200Z,2.53
2023-01-21T14:25:22.922Z,3.00
2023-01-21T14:28:01.591Z,2.75
2023-01-21T14:30:37.972Z,3.17
2023-01-21T14:33:24.897Z,3.15
2023-01-21T14:36:03.970Z,2.60
2023-01-21T14:38:43.752Z,2.92
2023-01-21T14:41:12.226Z,3.47
2023-01-21T14:43:40.647Z,3.55
2023-01-21T14:46:28.720Z,2.95
2023-01-21T14:49:08.359Z,3.80
2023-01-21T14:51:44.544Z,3.38
2023-01-21T14:54:23.497Z,3.55
2023-01-21T14:57:13.576Z,3.45
2023-01-21T14:59:46.448Z,3.35
2023-01-21T15:02:26.861Z,3.50
2023-01-21T15:05:00.289Z,3.35
2023-01-21T15:07:41.385Z,3.08
2023-01-21T15:10:29.214Z,3.40
2023-01-21T15:12:58.842Z,3.45
2023-01-21T15:15:35.039Z,3.38
2023-01-21T15:18:10.924Z,3.47
2023-01-21T15:20:39.619Z,4.25
2023-01-21T15:23:30.921Z,3.78
2023-01-21T15:26:12.853Z,4.28
2023-01-21T15:28:56.125Z,3.42
2023-01-21T15:31:23.844Z,4.03
2023-01-21T15:33:56.410Z,3.00
2023-01-21T15:36:27.868Z,3.10
2023-01-21T15:39:02.019Z,3.45
2023-01-21T15:41:43.128Z,2.78
2023-01-21T15:44:29.140Z,2.80
2023-01-21T15:47:18.165Z,3.75
2023-01-21T15:49:59.105Z,2.85
2023-01-21T15:52:37.186Z,3.45
2023-01-21T15:55:21.553Z,3.70
2023-01-21T15:58:08.606Z,4.22
2023-01-21T16:03:43.013Z,3.55
2023-01-21T16:06:21.236Z,4.50
2023-01-21T16:09:03.160Z,4.05
2023-01-21T16:11:55.399Z,3.70
2023-01-21T16:14:38.743Z,3.58
2023-01-21T16:17:29.139Z,3.00
2023-01-21T16:19:58.982Z,3.75
2023-01-21T16:22:29.971Z,3.95
2023-01-21T16:25:08.162Z,4.43
2023-01-21T16:27:36.230Z,3.83
2023-01-21T16:30:07.545Z,4.28
2023-01-21T16:32:37.069Z,5.22
2023-01-21T16:35:05.186Z,5.13
2023-01-21T16:37:32.958Z,5.10
2023-01-21T16:40:09.163Z,5.13
2023-01-21T16:42:38.213Z,4.72
2023-01-21T16:45:11.162Z,5.03
2023-01-21T16:47:38.268Z,4.90
2023-01-21T16:50:20.050Z,3.85
2023-01-21T16:52:47.511Z,4.00
2023-01-21T16:55:24.335Z,3.78
2023-01-21T17:00:36.725Z,3.83
2023-01-21T17:03:04.813Z,3.60
2023-01-21T17:05:36.616Z,5.60
2023-01-21T17:08:09.442Z,3.42
2023-01-21T17:10:52.601Z,3.92
2023-01-21T17:13:19.749Z,3.72
2023-01-21T17:15:58.297Z,4.15
2023-01-21T17:18:32.823Z,3.75
2023-01-21T17:21:08.037Z,5.03
2023-01-21T17:23:57.147Z,3.78
2023-01-21T17:26:39.025Z,3.72
2023-01-21T17:29:22.423Z,3.60
2023-01-21T17:32:02.499Z,3.70
2023-01-21T17:34:34.344Z,3.67
2023-01-21T17:37:02.577Z,3.70
2023-01-21T17:39:50.757Z,4.13
2023-01-21T17:42:26.367Z,3.90
2023-01-21T17:45:00.912Z,4.63
2023-01-21T17:47:54.156Z,4.00
2023-01-21T17:50:32.312Z,3.88
2023-01-21T17:53:03.560Z,4.15
2023-01-21T17:55:38.084Z,3.97
2023-01-21T17:58:26.235Z,3.97
2023-01-21T18:00:53.217Z,3.85
2023-01-21T18:03:20.483Z,3.95
2023-01-21T18:05:47.481Z,4.20
2023-01-21T18:08:16.243Z,4.72
2023-01-21T18:10:44.923Z,4.10
2023-01-21T18:13:22.082Z,4.38
2023-01-21T18:15:51.811Z,4.32
2023-01-21T18:18:22.013Z,4.45
2023-01-21T18:20:48.932Z,4.88
2023-01-21T18:23:18.190Z,4.45
2023-01-21T18:25:50.978Z,4.85
2023-01-21T18:28:20.732Z,3.92
2023-01-21T18:30:49.406Z,3.47
2023-01-21T18:33:17.073Z,4.30
2023-01-21T18:35:45.916Z,4.65
2023-01-21T18:38:15.570Z,4.75
2023-01-21T18:40:42.517Z,4.18
2023-01-21T18:43:09.735Z,3.42
2023-01-21T18:45:37.193Z,3.97
2023-01-21T18:48:04.336Z,3.58
2023-01-21T18:50:31.196Z,4.07
2023-01-21T18:52:58.096Z,3.80
2023-01-21T18:55:29.952Z,3.30
2023-01-21T18:57:57.152Z,4.00
2023-01-21T19:00:30.448Z,3.58
2023-01-21T19:02:58.859Z,2.90
2023-01-21T19:05:30.641Z,3.58
2023-01-21T19:07:57.850Z,3.63
2023-01-21T19:10:24.726Z,2.70
2023-01-21T19:12:51.821Z,3.03
2023-01-21T19:15:21.259Z,3.70
2023-01-21T19:17:50.410Z,3.00
2023-01-21T19:20:26.991Z,3.25
2023-01-21T19:25:23.104Z,3.42
2023-01-21T19:27:52.554Z,3.42
2023-01-21T19:30:30.546Z,3.80
2023-01-21T19:32:59.202Z,3.35
2023-01-21T19:35:33.663Z,3.20
2023-01-21T19:38:03.484Z,3.42
2023-01-21T19:40:30.994Z,3.22
2023-01-21T19:42:58.059Z,4.03
2023-01-21T19:45:28.189Z,3.80
2023-01-21T19:47:56.084Z,3.40
2023-01-21T19:50:27.881Z,3.03
2023-01-21T19:52:55.411Z,3.15
2023-01-21T19:55:24.655Z,3.38
2023-01-21T19:58:00.587Z,3.70
2023-01-21T20:00:30.036Z,3.50
2023-01-21T20:02:57.401Z,4.68
2023-01-21T20:05:26.689Z,3.10
2023-01-21T20:07:55.059Z,2.90
2023-01-21T20:10:28.040Z,3.63
2023-01-21T20:12:54.951Z,2.72
2023-01-21T20:15:28.236Z,2.97
2023-01-21T20:17:57.189Z,2.85
2023-01-21T20:20:27.122Z,2.88
2023-01-21T20:22:54.243Z,3.08
2023-01-21T20:25:24.428Z,2.80
2023-01-21T20:27:57.817Z,3.20
2023-01-21T20:30:28.491Z,2.88
2023-01-21T20:32:56.350Z,2.92
2023-01-21T20:35:27.063Z,2.92
2023-01-21T20:37:56.540Z,2.10
2023-01-21T20:40:29.200Z,2.60
2023-01-21T20:42:57.603Z,3.28
2023-01-21T20:45:32.210Z,2.70
2023-01-21T20:48:02.171Z,2.75
2023-01-21T20:50:33.745Z,3.17
2023-01-21T20:53:01.176Z,5.60
2023-01-21T20:55:29.395Z,4.72
2023-01-21T20:57:56.747Z,3.55
2023-01-21T21:00:26.883Z,3.00
2023-01-21T21:02:57.897Z,2.80
2023-01-21T21:05:27.578Z,3.22
2023-01-21T21:07:55.285Z,3.30
2023-01-21T21:10:25.940Z,2.20
2023-01-21T21:12:55.548Z,1.92
2023-01-21T21:15:22.605Z,2.22
2023-01-21T21:17:49.617Z,1.77
2023-01-21T21:20:23.249Z,2.63
2023-01-21T21:22:50.543Z,2.00
2023-01-21T21:25:20.529Z,1.88
2023-01-21T21:27:47.966Z,1.77
2023-01-21T21:30:18.070Z,1.88
2023-01-21T21:32:45.349Z,1.85
2023-01-21T21:35:29.181Z,2.80
2023-01-21T21:37:58.827Z,2.28
2023-01-21T21:40:29.400Z,2.30
2023-01-21T21:43:16.201Z,2.40
2023-01-21T21:46:02.519Z,2.58
2023-01-21T21:48:39.704Z,2.13
2023-01-21T21:51:14.297Z,2.40
2023-01-21T21:53:41.724Z,2.88
2023-01-21T21:56:26.704Z,2.63
2023-01-21T21:58:53.718Z,2.50
2023-01-21T22:01:23.793Z,2.55
2023-01-21T22:03:51.351Z,2.67
2023-01-21T22:06:20.616Z,2.28
2023-01-21T22:08:48.881Z,2.55
2023-01-21T22:11:18.745Z,2.70
2023-01-21T22:13:50.025Z,2.17
2023-01-21T22:16:20.883Z,2.20
2023-01-21T22:18:48.117Z,2.42
2023-01-21T22:21:19.257Z,3.00
2023-01-21T22:23:47.144Z,2.53
2023-01-21T22:26:16.727Z,2.53
2023-01-21T22:28:44.794Z,2.90
2023-01-21T22:31:18.061Z,2.28
2023-01-21T22:33:45.186Z,2.35
2023-01-21T22:36:16.196Z,2.45
2023-01-21T22:38:43.552Z,2.47
2023-01-21T22:41:12.982Z,2.35
2023-01-21T22:43:42.115Z,2.30
2023-01-21T22:46:12.636Z,3.50
2023-01-21T22:48:41.577Z,2.85
2023-01-21T22:51:11.962Z,3.05
2023-01-21T22:53:43.987Z,2.85
2023-01-21T22:56:15.217Z,2.97
2023-01-21T22:58:42.479Z,2.60
2023-01-21T23:01:20.601Z,2.45
2023-01-21T23:03:47.523Z,2.42
2023-01-21T23:06:14.494Z,2.33
2023-01-21T23:08:41.384Z,2.67
2023-01-21T23:11:08.668Z,2.53
2023-01-21T23:13:35.838Z,2.45
2023-01-21T23:16:06.766Z,2.10
2023-01-21T23:18:36.260Z,1.83
2023-01-21T23:21:22.379Z,2.10
2023-01-21T23:23:50.380Z,2.20
2023-01-21T23:26:19.330Z,2.13
2023-01-21T23:28:46.532Z,2.13
2023-01-21T23:31:16.308Z,2.20
2023-01-21T23:33:43.424Z,2.50
2023-01-21T23:36:13.086Z,3.22
2023-01-21T23:38:41.290Z,2.60
2023-01-21T23:41:10.400Z,2.97
2023-01-21T23:43:37.761Z,2.38
2023-01-21T23:46:06.937Z,2.90
2023-01-21T23:48:34.054Z,2.20
2023-01-21T23:51:10.632Z,2.67
2023-01-21T23:56:07.375Z,2.45
2023-01-21T23:58:34.369Z,2.33
